Time;durP1;ratioP1;P1;durP2;ratioP2;P2;SDS_P1;SDS_P2;PMS_P1;PMS_P2;Temp;Humidity;BMP_temperature;BMP_pressure;BME280_temperature;BME280_humidity;BME280_pressure;Samples;Min_cycle;Max_cycle;Signal;HPM_P1;HPM_P2
2024/01/20 00:08:38;;;;;;;33.00;13.70;;;;;;;-2.27;89.32;99089.15;435288;1253;97479;-39
2024/01/20 00:18:44;;;;;;;31.40;10.70;;;;;;;-2.36;89.09;99094.77;435338;1256;110594;-38
2024/01/20 00:28:51;;;;;;;17.60;9.00;;;;;;;-2.29;89.05;99102.08;435103;1254;107618;-39
2024/01/20 00:38:58;;;;;;;25.20;11.30;;;;;;;-2.20;88.99;99098.00;435328;1254;96634;-41
2024/01/20 00:49:05;;;;;;;31.40;12.20;;;;;;;-2.18;89.08;99100.29;434832;1256;466479;-40
2024/01/20 00:59:13;;;;;;;30.80;11.90;;;;;;;-2.28;88.73;99103.21;435402;1256;108960;-38
2024/01/20 01:19:26;;;;;;;20.60;10.20;;;;;;;-2.36;88.71;99101.75;435192;1256;98204;-38
2024/01/20 01:29:33;;;;;;;16.10;8.30;;;;;;;-2.35;88.72;99108.30;435343;1254;107346;-38
2024/01/20 01:39:42;;;;;;;25.90;11.10;;;;;;;-2.46;88.57;99112.58;435316;1256;96580;-39
2024/01/20 01:49:50;;;;;;;20.50;9.10;;;;;;;-2.70;88.28;99114.16;435369;1256;97492;-38
2024/01/20 01:59:58;;;;;;;16.50;7.10;;;;;;;-2.83;88.25;99113.91;435279;1254;110547;-39
2024/01/20 02:10:07;;;;;;;14.90;7.00;;;;;;;-2.86;88.34;99114.22;435393;1256;108530;-38
2024/01/20 02:20:15;;;;;;;26.60;9.10;;;;;;;-2.94;88.40;99118.16;435302;1256;97864;-39
2024/01/20 02:30:21;;;;;;;20.30;9.00;;;;;;;-3.07;88.30;99125.99;435299;1255;109444;-39
2024/01/20 02:40:29;;;;;;;20.40;7.80;;;;;;;-3.12;88.11;99127.81;435261;1252;107445;-38
2024/01/20 02:50:36;;;;;;;10.80;6.30;;;;;;;-3.13;88.17;99126.64;436038;1251;97880;-40
2024/01/20 03:00:43;;;;;;;16.50;7.40;;;;;;;-3.13;88.11;99123.56;435365;1256;109520;-39
2024/01/20 03:10:50;;;;;;;30.40;8.60;;;;;;;-3.21;88.30;99126.21;435456;1255;108634;-40
2024/01/20 03:20:57;;;;;;;20.10;7.50;;;;;;;-3.32;88.37;99126.27;435412;1254;96645;-39
2024/01/20 03:31:04;;;;;;;12.90;5.00;;;;;;;-3.38;88.13;99128.98;435297;1251;97896;-39
2024/01/20 03:41:10;;;;;;;14.60;7.70;;;;;;;-3.43;87.95;99135.39;435345;1256;108590;-39
2024/01/20 03:51:17;;;;;;;15.20;6.60;;;;;;;-3.40;88.18;99129.63;435357;1257;96571;-39
2024/01/20 04:11:30;;;;;;;14.60;6.10;;;;;;;-3.42;88.26;99142.63;435362;1257;107180;-39
2024/01/20 04:21:34;;;;;;;19.80;5.60;;;;;;;-3.38;88.19;99154.33;435381;1251;96727;-39
2024/01/20 04:31:41;;;;;;;21.80;8.20;;;;;;;-3.44;88.23;99164.84;435291;1256;109719;-39
2024/01/20 04:41:49;;;;;;;17.10;10.00;;;;;;;-3.62;88.09;99181.67;435311;1254;107336;-39
2024/01/20 04:51:57;;;;;;;16.30;7.90;;;;;;;-3.79;88.02;99179.08;435463;1251;96599;-39
2024/01/20 05:02:04;;;;;;;21.10;8.80;;;;;;;-3.64;88.13;99193.90;435203;1251;109936;-40
2024/01/20 05:12:11;;;;;;;17.50;7.40;;;;;;;-3.42;88.24;99195.19;435323;1264;107309;-41
2024/01/20 05:22:19;;;;;;;20.00;8.50;;;;;;;-3.34;88.13;99197.59;435355;1251;96993;-40
2024/01/20 05:32:26;;;;;;;13.20;6.70;;;;;;;-3.30;88.12;99196.64;435364;1257;108527;-39
2024/01/20 05:42:33;;;;;;;16.20;7.40;;;;;;;-3.15;87.91;99200.34;435323;1256;109930;-38
2024/01/20 05:52:41;;;;;;;15.80;6.50;;;;;;;-3.03;87.94;99202.78;435319;1257;97459;-40
2024/01/20 06:02:48;;;;;;;16.60;8.20;;;;;;;-3.02;87.83;99207.88;435331;1264;111476;-39
2024/01/20 06:12:55;;;;;;;12.70;6.40;;;;;;;-3.07;87.75;99217.63;435341;1257;107357;-39
2024/01/20 06:23:02;;;;;;;16.40;6.40;;;;;;;-3.16;87.60;99221.63;435233;1256;118014;-38
2024/01/20 06:33:09;;;;;;;11.70;5.00;;;;;;;-3.22;87.32;99237.61;435122;1257;110827;-39
2024/01/20 06:43:15;;;;;;;16.90;7.80;;;;;;;-3.09;87.45;99240.64;435290;1257;107692;-40
2024/01/20 06:53:22;;;;;;;22.60;9.80;;;;;;;-2.96;87.63;99237.39;437086;1261;97989;-39
2024/01/20 07:03:30;;;;;;;28.40;12.60;;;;;;;-2.93;87.52;99241.79;437150;1247;111614;-39
2024/01/20 07:23:44;;;;;;;30.30;18.70;;;;;;;-2.61;87.04;99260.63;437210;1261;97879;-40
2024/01/20 07:33:51;;;;;;;22.80;11.40;;;;;;;-2.48;86.74;99268.13;436999;1253;109821;-37
2024/01/20 07:43:58;;;;;;;26.40;12.60;;;;;;;-2.52;86.88;99275.67;436863;1253;108366;-39
2024/01/20 08:04:10;;;;;;;17.50;9.00;;;;;;;-0.48;87.07;99291.53;436986;1251;108844;-39
2024/01/20 08:14:18;;;;;;;27.70;12.30;;;;;;;0.54;85.96;99300.44;437081;1248;107646;-39
2024/01/20 08:24:24;;;;;;;15.40;6.40;;;;;;;1.42;84.74;99295.47;436883;1261;97884;-40
2024/01/20 08:34:31;;;;;;;26.90;10.80;;;;;;;1.44;83.05;99305.23;436725;1251;110465;-40
2024/01/20 08:44:38;;;;;;;19.90;8.90;;;;;;;0.76;81.30;99322.88;437644;1251;109368;-39
2024/01/20 08:54:44;;;;;;;17.40;8.40;;;;;;;0.02;81.33;99335.84;437599;1248;109029;-38
2024/01/20 09:04:52;;;;;;;21.40;8.00;;;;;;;-0.04;80.87;99354.76;437638;1251;96600;-40
2024/01/20 09:14:59;;;;;;;14.30;8.10;;;;;;;-0.29;80.82;99369.02;436862;1251;110671;-39
2024/01/20 09:25:06;;;;;;;13.00;6.40;;;;;;;-0.24;80.95;99372.90;436678;1260;106965;-39
2024/01/20 09:35:13;;;;;;;16.00;6.70;;;;;;;-0.28;80.58;99373.81;436697;1251;97921;-39
2024/01/20 09:45:20;;;;;;;16.90;7.90;;;;;;;-0.07;80.30;99379.27;436716;1253;110545;-40
2024/01/20 09:55:27;;;;;;;20.60;10.30;;;;;;;-0.12;79.87;99368.64;436645;1251;108467;-39
2024/01/20 10:05:34;;;;;;;17.90;7.80;;;;;;;-0.23;79.52;99362.23;436836;1251;97890;-38
2024/01/20 10:15:41;;;;;;;10.50;5.70;;;;;;;0.03;79.27;99364.84;436824;1251;97925;-39
2024/01/20 10:25:47;;;;;;;16.20;8.60;;;;;;;0.42;78.57;99360.44;436864;1251;110505;-39
2024/01/20 10:46:00;;;;;;;16.00;8.40;;;;;;;0.91;78.03;99352.99;437480;1251;98506;-38
2024/01/20 10:56:08;;;;;;;17.50;9.80;;;;;;;0.91;76.08;99346.94;438171;1251;109611;-38
2024/01/20 11:06:19;;;;;;;20.90;10.30;;;;;;;0.74;76.18;99354.00;438264;1251;107697;-39
2024/01/20 11:16:25;;;;;;;16.30;6.90;;;;;;;0.87;75.62;99339.00;438317;1251;107664;-40
2024/01/20 11:26:34;;;;;;;11.50;7.90;;;;;;;0.93;74.66;99336.90;437511;1247;118772;-39
2024/01/20 11:36:41;;;;;;;23.70;13.40;;;;;;;0.91;74.23;99326.47;436888;1251;109849;-39
2024/01/20 11:46:47;;;;;;;15.00;8.70;;;;;;;1.03;74.03;99322.83;436837;1247;109561;-38
2024/01/20 11:56:57;;;;;;;23.90;11.10;;;;;;;1.10;73.83;99314.52;437393;1251;97868;-40
2024/01/20 12:07:04;;;;;;;22.30;10.10;;;;;;;0.92;73.04;99316.35;436761;1247;97466;-39
2024/01/20 12:17:12;;;;;;;15.90;8.30;;;;;;;0.90;73.12;99323.23;437301;1254;110977;-39
2024/01/20 12:27:20;;;;;;;17.40;9.20;;;;;;;0.88;73.36;99324.48;436602;1251;109097;-38
2024/01/20 12:37:28;;;;;;;14.90;6.60;;;;;;;0.89;73.56;99325.21;437926;1251;97957;-39
2024/01/20 12:57:40;;;;;;;16.70;6.20;;;;;;;0.88;73.29;99314.46;436418;1247;483819;-39
2024/01/20 13:07:47;;;;;;;18.90;7.70;;;;;;;0.75;73.17;99312.27;436537;1251;97485;-41
2024/01/20 13:17:55;;;;;;;16.80;7.80;;;;;;;0.71;73.50;99315.60;436641;1251;98103;-39
2024/01/20 13:38:08;;;;;;;99.10;33.10;;;;;;;0.73;73.12;99327.11;436501;1251;108271;-38
2024/01/20 13:48:15;;;;;;;21.20;10.10;;;;;;;0.85;73.31;99330.58;436593;1248;107688;-38
2024/01/20 14:08:29;;;;;;;28.40;11.30;;;;;;;0.55;72.35;99338.63;436491;1251;110665;-40
2024/01/20 14:18:35;;;;;;;22.30;10.00;;;;;;;0.36;72.74;99345.94;436638;1251;107344;-40
2024/01/20 14:28:42;;;;;;;28.40;12.80;;;;;;;0.30;72.27;99352.85;436574;1251;97963;-39
2024/01/20 14:38:50;;;;;;;32.30;15.80;;;;;;;0.26;72.55;99362.64;436630;1251;109514;-40
2024/01/20 14:48:57;;;;;;;30.20;16.40;;;;;;;0.07;72.90;99370.81;436714;1248;108579;-38
2024/01/20 14:59:04;;;;;;;18.30;8.60;;;;;;;-0.12;72.66;99377.83;436665;1251;98104;-41
2024/01/20 15:09:11;;;;;;;17.90;7.40;;;;;;;-0.31;72.62;99381.68;436767;1251;97861;-39
2024/01/20 15:19:19;;;;;;;20.70;8.90;;;;;;;-0.45;72.91;99384.45;436641;1251;109821;-41
2024/01/20 15:29:26;;;;;;;19.30;7.80;;;;;;;-0.62;73.08;99391.88;436803;1248;107932;-39
2024/01/20 15:39:36;;;;;;;19.60;9.30;;;;;;;-0.67;72.74;99404.73;436774;1248;97883;-39
2024/01/20 16:09:57;;;;;;;32.20;11.30;;;;;;;-1.04;73.28;99425.77;436544;1248;97509;-40
2024/01/20 16:20:04;;;;;;;23.30;9.60;;;;;;;-1.07;73.33;99439.73;436463;1251;97378;-41
2024/01/20 16:30:11;;;;;;;28.20;11.40;;;;;;;-0.99;73.34;99449.48;436752;1247;108785;-38
2024/01/20 16:40:17;;;;;;;52.10;18.00;;;;;;;-1.04;73.73;99468.17;437611;1251;97854;-38
2024/01/20 16:50:24;;;;;;;67.80;24.90;;;;;;;-1.13;73.98;99494.25;436498;1247;96625;-38
2024/01/20 17:00:31;;;;;;;46.70;19.60;;;;;;;-1.28;74.13;99496.38;436667;1251;109933;-39
2024/01/20 17:10:38;;;;;;;22.60;11.50;;;;;;;-1.34;73.91;99499.80;436626;1247;107259;-39
2024/01/20 17:20:45;;;;;;;37.40;18.10;;;;;;;-1.32;74.04;99517.15;436535;1247;97853;-38
2024/01/20 17:30:52;;;;;;;32.10;14.60;;;;;;;-1.35;74.70;99541.29;436736;1253;110767;-39
2024/01/20 17:40:59;;;;;;;147.60;47.40;;;;;;;-1.34;74.87;99550.68;437323;1253;108448;-40
2024/01/20 17:51:06;;;;;;;55.30;21.40;;;;;;;-1.29;75.11;99557.85;436617;1251;97948;-39
2024/01/20 18:01:13;;;;;;;70.00;25.80;;;;;;;-1.16;75.22;99563.55;436670;1251;97896;-39
2024/01/20 18:11:19;;;;;;;37.60;15.20;;;;;;;-1.14;75.24;99568.92;436834;1251;108479;-39
2024/01/20 18:21:24;;;;;;;41.80;17.50;;;;;;;-1.17;75.80;99577.27;436927;1251;97836;-39
2024/01/20 18:31:30;;;;;;;40.50;14.60;;;;;;;-1.20;75.86;99589.66;436830;1251;97858;-39
2024/01/20 18:41:35;;;;;;;41.50;18.90;;;;;;;-1.12;76.05;99612.71;436908;1251;110667;-39
2024/01/20 18:51:42;;;;;;;46.20;17.80;;;;;;;-1.15;76.45;99621.58;436900;1253;108133;-40
2024/01/20 19:01:50;;;;;;;34.90;14.50;;;;;;;-1.28;76.72;99622.42;436848;1247;97890;-39
2024/01/20 19:22:02;;;;;;;37.90;13.70;;;;;;;-1.31;77.16;99642.95;437032;1248;108964;-40
2024/01/20 19:42:16;;;;;;;47.40;19.90;;;;;;;-1.38;77.71;99671.45;436946;1251;97896;-39
2024/01/20 19:52:23;;;;;;;26.20;14.10;;;;;;;-1.58;78.28;99688.48;436627;1247;109420;-40
2024/01/20 20:12:33;;;;;;;26.50;14.90;;;;;;;-1.81;79.88;99690.88;436658;1247;97890;-39
2024/01/20 20:22:41;;;;;;;27.80;14.00;;;;;;;-1.85;80.48;99690.86;436719;1251;110718;-39
2024/01/20 20:32:48;;;;;;;27.00;12.60;;;;;;;-1.88;80.99;99693.89;436825;1247;109425;-37
2024/01/20 20:42:55;;;;;;;25.30;12.10;;;;;;;-1.89;81.79;99697.04;436688;1251;97858;-39
2024/01/20 20:53:04;;;;;;;18.30;9.50;;;;;;;-1.77;81.74;99705.76;436732;1248;108749;-40
2024/01/20 21:03:11;;;;;;;16.40;9.10;;;;;;;-1.59;81.85;99713.28;436849;1247;109092;-39
2024/01/20 21:13:18;;;;;;;25.50;12.00;;;;;;;-1.52;82.16;99719.34;437034;1253;97374;-39
2024/01/20 21:23:24;;;;;;;41.50;18.50;;;;;;;-1.51;82.29;99733.05;436868;1247;110870;-39
2024/01/20 21:33:31;;;;;;;35.90;15.90;;;;;;;-1.50;82.08;99741.79;436826;1251;108540;-39
2024/01/20 21:43:38;;;;;;;26.00;12.00;;;;;;;-1.44;82.04;99749.59;436831;1247;97889;-39
2024/01/20 21:53:45;;;;;;;26.60;12.90;;;;;;;-1.33;81.97;99763.71;437052;1252;109734;-39
2024/01/20 22:03:52;;;;;;;44.70;17.80;;;;;;;-1.26;82.19;99774.73;437090;1251;108151;-38
2024/01/20 22:13:59;;;;;;;68.60;24.70;;;;;;;-1.31;82.13;99785.83;437042;1253;97874;-38
2024/01/20 22:24:05;;;;;;;34.00;13.50;;;;;;;-1.35;82.14;99788.75;437027;1253;110107;-39
2024/01/20 22:34:12;;;;;;;24.40;10.90;;;;;;;-1.30;82.13;99802.67;437200;1248;110086;-38
2024/01/20 22:44:20;;;;;;;24.60;15.00;;;;;;;-1.20;82.31;99804.66;437077;1248;97486;-40
2024/01/20 22:54:27;;;;;;;55.50;22.70;;;;;;;-1.14;82.36;99812.37;437141;1252;109560;-39
2024/01/20 23:04:35;;;;;;;74.10;26.50;;;;;;;-1.19;82.50;99819.66;437236;1251;107745;-38
2024/01/20 23:24:47;;;;;;;33.60;14.60;;;;;;;-1.23;82.56;99836.78;436978;1253;98523;-40
2024/01/20 23:34:54;;;;;;;35.60;16.30;;;;;;;-1.16;82.57;99844.91;437134;1253;107559;-41
2024/01/20 23:45:01;;;;;;;42.90;17.40;;;;;;;-1.16;82.81;99859.20;437184;1252;97942;-38
2024/01/20 23:55:06;;;;;;;27.40;12.30;;;;;;;-1.22;82.81;99866.98;437195;1253;97880;-39
